Time;durP1;ratioP1;P1;durP2;ratioP2;P2;SDS_P1;SDS_P2;PMS_P1;PMS_P2;Temp;Humidity;BMP_temperature;BMP_pressure;BME280_temperature;BME280_humidity;BME280_pressure;Samples;Min_cycle;Max_cycle;Signal;HPM_P1;HPM_P2
2022/05/08 00:02:13;;;;;;;8.18;3.72;;;;;;;;;;5104834;28;20027;-52
2022/05/08 00:04:39;;;;;;;9.13;3.08;;;;;;;;;;5108837;28;20093;-49
2022/05/08 00:07:05;;;;;;;6.15;2.75;;;;;;;;;;5108352;28;20481;-53
2022/05/08 00:09:32;;;;;;;6.70;2.65;;;;;;;;;;5108595;28;20023;-53
2022/05/08 00:11:58;;;;;;;4.72;2.78;;;;;;;;;;5108223;28;20102;-53
2022/05/08 00:14:24;;;;;;;8.00;2.90;;;;;;;;;;5107807;28;20102;-51
2022/05/08 00:16:50;;;;;;;5.80;2.90;;;;;;;;;;5107029;28;20019;-54
2022/05/08 00:19:16;;;;;;;4.93;2.88;;;;;;;;;;5107635;28;20402;-54
2022/05/08 00:21:42;;;;;;;4.95;2.70;;;;;;;;;;5108044;28;20508;-53
2022/05/08 00:24:09;;;;;;;8.05;2.75;;;;;;;;;;5110542;28;20020;-53
2022/05/08 00:26:35;;;;;;;5.28;2.65;;;;;;;;;;5111901;28;20030;-52
2022/05/08 00:29:01;;;;;;;5.22;2.83;;;;;;;;;;5112062;28;20063;-55
2022/05/08 00:31:27;;;;;;;7.57;3.58;;;;;;;;;;5109271;28;20044;-53
2022/05/08 00:33:53;;;;;;;5.82;2.63;;;;;;;;;;5104676;28;20027;-51
2022/05/08 00:36:19;;;;;;;5.65;2.80;;;;;;;;;;5111638;28;20035;-53
2022/05/08 00:38:46;;;;;;;10.70;3.20;;;;;;;;;;5111287;28;21113;-53
2022/05/08 00:41:12;;;;;;;7.70;3.50;;;;;;;;;;5111284;28;20107;-55
2022/05/08 00:43:39;;;;;;;6.45;2.85;;;;;;;;;;5111071;28;20549;-54
2022/05/08 00:46:05;;;;;;;4.47;2.58;;;;;;;;;;5103810;28;20107;-54
2022/05/08 00:48:31;;;;;;;7.63;2.60;;;;;;;;;;5094326;28;20040;-52
2022/05/08 00:50:57;;;;;;;5.18;2.67;;;;;;;;;;5111385;28;20055;-52
2022/05/08 00:53:26;;;;;;;5.68;2.97;;;;;;;;;;5111146;28;20039;-53
2022/05/08 00:55:54;;;;;;;6.18;2.80;;;;;;;;;;5111186;28;20046;-53
2022/05/08 00:58:21;;;;;;;5.93;3.15;;;;;;;;;;5110789;28;20024;-50
2022/05/08 01:00:47;;;;;;;5.93;3.08;;;;;;;;;;5109635;28;20028;-56
2022/05/08 01:03:14;;;;;;;6.78;3.00;;;;;;;;;;5111131;28;20028;-56
2022/05/08 01:05:41;;;;;;;5.47;2.65;;;;;;;;;;5111549;28;20062;-55
2022/05/08 01:08:08;;;;;;;6.45;3.13;;;;;;;;;;5110129;28;20052;-52
2022/05/08 01:10:35;;;;;;;5.22;2.83;;;;;;;;;;5110747;28;20103;-52
2022/05/08 01:13:01;;;;;;;6.70;2.80;;;;;;;;;;5111241;28;20020;-56
2022/05/08 01:15:28;;;;;;;5.63;3.28;;;;;;;;;;5109208;28;20516;-55
2022/05/08 01:17:54;;;;;;;7.22;3.03;;;;;;;;;;5108786;28;20118;-53
2022/05/08 01:20:20;;;;;;;6.25;2.85;;;;;;;;;;5110502;28;20099;-53
2022/05/08 01:22:46;;;;;;;6.10;2.90;;;;;;;;;;5110843;27;20123;-56
2022/05/08 01:25:12;;;;;;;6.13;2.90;;;;;;;;;;5110567;28;20030;-53
2022/05/08 01:27:38;;;;;;;6.05;3.08;;;;;;;;;;5110527;28;20031;-55
2022/05/08 01:30:05;;;;;;;5.65;2.95;;;;;;;;;;5110885;28;20020;-55
2022/05/08 01:32:31;;;;;;;6.25;3.13;;;;;;;;;;5109372;28;20052;-55
2022/05/08 01:34:57;;;;;;;5.60;2.78;;;;;;;;;;5109609;28;20055;-53
2022/05/08 01:37:23;;;;;;;5.15;2.90;;;;;;;;;;5110712;28;20495;-56
2022/05/08 01:39:50;;;;;;;11.30;3.50;;;;;;;;;;5110681;28;20106;-54
2022/05/08 01:42:16;;;;;;;6.60;2.75;;;;;;;;;;5110324;28;20508;-53
2022/05/08 01:44:42;;;;;;;5.90;3.03;;;;;;;;;;5110710;28;20450;-52
2022/05/08 01:49:53;;;;;;;6.03;2.70;;;;;;;;;;5110855;28;20096;-56
2022/05/08 01:52:19;;;;;;;5.93;2.70;;;;;;;;;;5110054;28;20405;-52
2022/05/08 01:54:45;;;;;;;6.28;2.78;;;;;;;;;;5110502;28;20114;-53
2022/05/08 01:57:11;;;;;;;5.00;2.53;;;;;;;;;;5110559;28;20035;-54
2022/05/08 01:59:37;;;;;;;6.20;2.85;;;;;;;;;;5110343;28;20094;-53
2022/05/08 02:02:03;;;;;;;6.68;2.85;;;;;;;;;;5106509;28;20576;-53
2022/05/08 02:04:29;;;;;;;4.95;2.28;;;;;;;;;;5110101;28;20027;-54
2022/05/08 02:06:56;;;;;;;6.40;3.03;;;;;;;;;;5109904;28;20024;-54
2022/05/08 02:09:22;;;;;;;6.57;2.72;;;;;;;;;;5109838;28;20119;-55
2022/05/08 02:11:48;;;;;;;6.25;3.00;;;;;;;;;;5110232;28;20450;-55
2022/05/08 02:14:14;;;;;;;5.10;2.83;;;;;;;;;;5109818;28;20055;-54
2022/05/08 02:16:40;;;;;;;7.13;2.67;;;;;;;;;;5106500;28;20077;-54
2022/05/08 02:19:06;;;;;;;5.70;2.75;;;;;;;;;;5107711;28;20039;-54
2022/05/08 02:21:32;;;;;;;6.35;3.00;;;;;;;;;;5108829;28;20023;-51
2022/05/08 02:24:01;;;;;;;8.10;2.85;;;;;;;;;;5109493;28;20533;-53
2022/05/08 02:26:27;;;;;;;4.65;2.35;;;;;;;;;;5109794;27;20028;-55
2022/05/08 02:28:53;;;;;;;6.32;2.38;;;;;;;;;;5108248;28;20504;-56
2022/05/08 02:31:19;;;;;;;9.52;3.58;;;;;;;;;;5103677;28;20833;-54
2022/05/08 02:33:45;;;;;;;7.18;3.35;;;;;;;;;;5108760;28;20023;-53
2022/05/08 02:36:12;;;;;;;6.85;3.10;;;;;;;;;;5108630;28;20076;-54
2022/05/08 02:38:39;;;;;;;5.53;2.47;;;;;;;;;;5109519;28;20566;-53
2022/05/08 02:41:06;;;;;;;7.65;2.83;;;;;;;;;;5109251;28;20035;-55
2022/05/08 02:43:33;;;;;;;7.53;3.00;;;;;;;;;;5108051;28;20058;-52
2022/05/08 02:46:00;;;;;;;10.60;3.35;;;;;;;;;;5109521;28;20031;-52
2022/05/08 02:48:27;;;;;;;7.85;3.17;;;;;;;;;;5108774;28;20058;-54
2022/05/08 02:50:53;;;;;;;5.90;2.80;;;;;;;;;;5096691;28;20405;-54
2022/05/08 02:53:20;;;;;;;6.63;3.03;;;;;;;;;;5098194;28;20492;-55
2022/05/08 02:58:34;;;;;;;6.50;2.90;;;;;;;;;;5109360;28;20039;-56
2022/05/08 03:01:01;;;;;;;7.18;2.95;;;;;;;;;;5109452;28;20040;-52
2022/05/08 03:03:27;;;;;;;9.10;3.80;;;;;;;;;;5108727;28;20131;-56
2022/05/08 03:05:53;;;;;;;7.45;3.10;;;;;;;;;;5108095;28;20394;-55
2022/05/08 03:08:20;;;;;;;5.40;2.30;;;;;;;;;;5108726;28;20107;-54
2022/05/08 03:13:40;;;;;;;6.72;2.92;;;;;;;;;;5109167;28;20039;-57
2022/05/08 03:16:07;;;;;;;6.30;2.88;;;;;;;;;;5098639;28;20110;-56
2022/05/08 03:18:39;;;;;;;5.88;2.72;;;;;;;;;;5108690;28;20541;-56
2022/05/08 03:21:05;;;;;;;7.93;3.33;;;;;;;;;;5106890;28;20110;-57
2022/05/08 03:23:33;;;;;;;9.48;3.03;;;;;;;;;;5108343;28;20023;-56
2022/05/08 03:25:59;;;;;;;8.60;2.92;;;;;;;;;;5109381;28;20023;-53
2022/05/08 03:28:26;;;;;;;6.82;2.75;;;;;;;;;;5108334;28;20046;-54
2022/05/08 03:30:52;;;;;;;6.90;2.63;;;;;;;;;;5108585;28;20028;-55
2022/05/08 03:33:18;;;;;;;6.68;3.28;;;;;;;;;;5108582;28;20055;-54
2022/05/08 03:35:44;;;;;;;7.40;2.88;;;;;;;;;;5108054;28;20031;-55
2022/05/08 03:38:10;;;;;;;8.00;2.75;;;;;;;;;;5109212;28;20024;-57
2022/05/08 03:40:37;;;;;;;5.90;2.67;;;;;;;;;;5108361;28;20139;-56
2022/05/08 03:43:04;;;;;;;7.90;2.58;;;;;;;;;;5105459;28;20134;-56
2022/05/08 03:45:30;;;;;;;6.82;2.70;;;;;;;;;;5100986;28;20027;-55
2022/05/08 03:47:56;;;;;;;8.63;2.80;;;;;;;;;;5108752;28;20130;-54
2022/05/08 03:50:22;;;;;;;7.18;2.63;;;;;;;;;;5107467;28;20228;-55
2022/05/08 03:52:49;;;;;;;6.28;2.40;;;;;;;;;;5108692;28;20026;-56
2022/05/08 03:55:16;;;;;;;9.13;2.90;;;;;;;;;;5108246;28;20015;-53
2022/05/08 03:57:42;;;;;;;6.32;2.85;;;;;;;;;;5109638;28;20027;-57
2022/05/08 04:00:09;;;;;;;6.63;2.38;;;;;;;;;;5112290;28;20028;-57
2022/05/08 04:02:35;;;;;;;6.93;2.88;;;;;;;;;;5112244;28;20110;-55
2022/05/08 04:05:02;;;;;;;5.60;2.53;;;;;;;;;;5111563;28;20446;-53
2022/05/08 04:07:29;;;;;;;10.43;2.90;;;;;;;;;;5112226;28;20114;-57
2022/05/08 04:09:55;;;;;;;5.35;2.58;;;;;;;;;;5112544;28;20438;-52
2022/05/08 04:12:21;;;;;;;6.30;2.38;;;;;;;;;;5110342;28;20016;-54
2022/05/08 04:14:48;;;;;;;6.13;2.33;;;;;;;;;;5100444;28;20439;-56
2022/05/08 04:17:14;;;;;;;6.10;2.88;;;;;;;;;;5111805;28;20024;-51
2022/05/08 04:19:42;;;;;;;5.78;2.42;;;;;;;;;;5112320;28;20061;-55
2022/05/08 04:24:53;;;;;;;8.30;2.65;;;;;;;;;;5092087;28;20089;-56
2022/05/08 04:27:19;;;;;;;6.00;2.67;;;;;;;;;;5108273;28;20498;-56
2022/05/08 04:29:45;;;;;;;7.63;3.17;;;;;;;;;;5111094;28;20027;-56
2022/05/08 04:32:11;;;;;;;6.30;2.53;;;;;;;;;;5111503;28;20051;-56
2022/05/08 04:34:37;;;;;;;6.22;2.63;;;;;;;;;;5110385;28;20106;-55
2022/05/08 04:37:04;;;;;;;6.65;2.65;;;;;;;;;;5109544;28;20047;-56
2022/05/08 04:39:30;;;;;;;7.55;2.67;;;;;;;;;;5109416;28;20038;-54
2022/05/08 04:41:56;;;;;;;8.18;2.80;;;;;;;;;;5111564;28;20039;-54
2022/05/08 04:44:22;;;;;;;6.85;2.65;;;;;;;;;;5108016;27;20555;-56
2022/05/08 04:46:48;;;;;;;6.30;2.42;;;;;;;;;;5100080;28;20055;-56
2022/05/08 04:49:14;;;;;;;6.85;2.60;;;;;;;;;;5101060;28;20062;-53
2022/05/08 04:51:40;;;;;;;7.15;2.22;;;;;;;;;;5103034;28;20020;-54
2022/05/08 04:54:06;;;;;;;7.45;3.00;;;;;;;;;;5111209;28;20476;-54
2022/05/08 04:56:32;;;;;;;6.20;2.60;;;;;;;;;;5111350;28;20032;-53
2022/05/08 04:58:58;;;;;;;33.90;5.43;;;;;;;;;;5110019;28;20069;-53
2022/05/08 05:01:25;;;;;;;25.35;5.13;;;;;;;;;;5111213;28;20024;-54
2022/05/08 05:03:52;;;;;;;30.83;5.47;;;;;;;;;;5108612;28;20110;-52
2022/05/08 05:06:18;;;;;;;21.73;4.22;;;;;;;;;;5110515;28;20051;-55
2022/05/08 05:08:44;;;;;;;23.77;4.47;;;;;;;;;;5110081;28;20040;-54
2022/05/08 05:11:10;;;;;;;28.63;5.30;;;;;;;;;;5110038;28;20111;-49
2022/05/08 05:13:40;;;;;;;25.42;5.43;;;;;;;;;;5110822;28;20019;-55
2022/05/08 05:16:06;;;;;;;21.10;5.22;;;;;;;;;;5111155;28;20112;-53
2022/05/08 05:18:32;;;;;;;15.55;4.22;;;;;;;;;;5109430;28;20034;-54
2022/05/08 05:20:58;;;;;;;23.73;5.65;;;;;;;;;;5109845;28;20132;-53
2022/05/08 05:23:24;;;;;;;25.95;4.90;;;;;;;;;;5110068;28;20020;-55
2022/05/08 05:25:51;;;;;;;19.75;4.63;;;;;;;;;;5110719;28;20028;-53
2022/05/08 05:28:18;;;;;;;24.73;4.43;;;;;;;;;;5110227;27;20473;-55
2022/05/08 05:30:44;;;;;;;23.52;4.70;;;;;;;;;;5110064;28;20107;-55
2022/05/08 05:33:15;;;;;;;22.92;4.95;;;;;;;;;;5108417;28;20047;-55
2022/05/08 05:35:44;;;;;;;29.75;5.93;;;;;;;;;;5108044;28;20016;-60
2022/05/08 05:38:10;;;;;;;19.60;4.32;;;;;;;;;;5110456;28;20454;-54
2022/05/08 05:40:36;;;;;;;22.17;4.78;;;;;;;;;;5110291;28;20023;-55
2022/05/08 05:43:02;;;;;;;19.92;4.15;;;;;;;;;;5103146;28;20418;-55
2022/05/08 05:45:28;;;;;;;17.90;4.20;;;;;;;;;;5109411;28;20126;-55
2022/05/08 05:47:54;;;;;;;19.40;4.53;;;;;;;;;;5110499;28;20035;-54
2022/05/08 05:50:25;;;;;;;32.10;5.88;;;;;;;;;;5108687;28;20104;-56
2022/05/08 05:52:51;;;;;;;23.10;5.00;;;;;;;;;;5109732;28;20028;-54
2022/05/08 05:55:18;;;;;;;16.40;4.82;;;;;;;;;;5104738;28;20031;-53
2022/05/08 05:57:44;;;;;;;21.70;4.95;;;;;;;;;;5107304;28;20044;-54
2022/05/08 06:00:12;;;;;;;22.38;5.00;;;;;;;;;;5108778;28;20024;-52
2022/05/08 06:02:39;;;;;;;22.95;4.60;;;;;;;;;;5106030;28;20030;-53
2022/05/08 06:05:08;;;;;;;25.80;4.50;;;;;;;;;;5102695;28;20111;-54
2022/05/08 06:07:35;;;;;;;21.88;4.18;;;;;;;;;;5108804;28;20087;-55
2022/05/08 06:10:01;;;;;;;23.17;4.40;;;;;;;;;;5109000;28;20165;-53
2022/05/08 06:12:28;;;;;;;19.27;4.28;;;;;;;;;;5104199;28;20024;-53
2022/05/08 06:14:54;;;;;;;20.98;3.80;;;;;;;;;;5107914;28;20505;-50
2022/05/08 06:17:21;;;;;;;30.55;4.95;;;;;;;;;;5106057;28;20111;-55
2022/05/08 06:19:47;;;;;;;16.45;4.00;;;;;;;;;;5106743;28;20046;-56
2022/05/08 06:22:13;;;;;;;25.17;3.97;;;;;;;;;;5107428;28;20557;-55
2022/05/08 06:24:39;;;;;;;22.02;4.00;;;;;;;;;;5108233;28;20419;-55
2022/05/08 06:27:05;;;;;;;24.95;3.85;;;;;;;;;;5107055;28;20031;-56
2022/05/08 06:29:32;;;;;;;19.85;3.83;;;;;;;;;;5110333;27;20191;-54
2022/05/08 06:31:58;;;;;;;23.70;4.18;;;;;;;;;;5112037;27;20047;-54
2022/05/08 06:34:24;;;;;;;19.30;4.47;;;;;;;;;;5106462;28;20038;-54
2022/05/08 06:36:56;;;;;;;18.45;4.95;;;;;;;;;;5108785;28;20103;-54
2022/05/08 06:39:22;;;;;;;20.48;4.22;;;;;;;;;;5108892;28;20565;-55
2022/05/08 06:41:48;;;;;;;18.92;3.75;;;;;;;;;;5107704;28;20549;-52
2022/05/08 06:44:14;;;;;;;17.55;3.35;;;;;;;;;;5109392;28;20039;-55
2022/05/08 06:46:41;;;;;;;18.27;3.65;;;;;;;;;;5109363;28;20059;-53
2022/05/08 06:49:07;;;;;;;16.10;4.97;;;;;;;;;;5101039;28;20140;-53
2022/05/08 06:51:36;;;;;;;12.68;3.30;;;;;;;;;;5100527;28;20023;-53
2022/05/08 06:54:03;;;;;;;24.17;4.70;;;;;;;;;;5109004;28;20104;-51
2022/05/08 06:56:31;;;;;;;19.55;4.60;;;;;;;;;;5108025;28;20023;-53
2022/05/08 07:01:43;;;;;;;21.08;3.40;;;;;;;;;;5109225;28;20038;-55
2022/05/08 07:04:10;;;;;;;16.20;4.05;;;;;;;;;;5108279;28;20363;-52
2022/05/08 07:06:36;;;;;;;14.60;3.30;;;;;;;;;;5108455;28;20090;-53
2022/05/08 07:09:03;;;;;;;17.73;3.67;;;;;;;;;;5108642;28;20039;-52
2022/05/08 07:11:30;;;;;;;17.52;4.80;;;;;;;;;;5108873;28;20027;-54
2022/05/08 07:13:56;;;;;;;21.77;4.28;;;;;;;;;;5096460;28;20378;-50
2022/05/08 07:16:22;;;;;;;16.45;3.47;;;;;;;;;;5107541;28;20431;-55
2022/05/08 07:18:48;;;;;;;17.13;3.05;;;;;;;;;;5108066;28;20027;-53
2022/05/08 07:21:14;;;;;;;19.33;4.25;;;;;;;;;;5108400;28;20028;-56
2022/05/08 07:23:40;;;;;;;18.52;3.20;;;;;;;;;;5107794;28;20033;-58
2022/05/08 07:26:06;;;;;;;18.60;3.72;;;;;;;;;;5108258;28;20167;-53
2022/05/08 07:28:33;;;;;;;13.80;3.28;;;;;;;;;;5106709;28;20047;-54
2022/05/08 07:31:01;;;;;;;17.02;2.72;;;;;;;;;;5107766;28;20096;-56
2022/05/08 07:33:29;;;;;;;16.88;3.20;;;;;;;;;;5110062;28;20082;-53
2022/05/08 07:36:13;;;;;;;19.75;3.20;;;;;;;;;;5113288;28;20020;-52
2022/05/08 07:38:40;;;;;;;15.65;3.58;;;;;;;;;;5115634;27;20039;-56
2022/05/08 07:41:07;;;;;;;14.80;3.22;;;;;;;;;;5112548;28;20497;-54
2022/05/08 07:43:33;;;;;;;14.63;3.10;;;;;;;;;;5111457;28;20111;-50
2022/05/08 07:45:59;;;;;;;19.00;3.17;;;;;;;;;;5112824;27;20038;-53
2022/05/08 07:48:25;;;;;;;14.32;3.00;;;;;;;;;;5111938;28;20122;-53
2022/05/08 07:50:51;;;;;;;17.17;2.80;;;;;;;;;;5112798;28;20098;-53
2022/05/08 07:53:18;;;;;;;19.63;2.92;;;;;;;;;;5112094;28;20494;-55
2022/05/08 07:55:51;;;;;;;13.07;3.60;;;;;;;;;;5112534;28;20034;-54
2022/05/08 07:58:19;;;;;;;22.48;3.30;;;;;;;;;;5110955;28;20598;-56
2022/05/08 08:00:45;;;;;;;15.73;3.88;;;;;;;;;;5111948;28;20039;-54
2022/05/08 08:03:11;;;;;;;21.20;3.63;;;;;;;;;;5109696;28;20028;-54
2022/05/08 08:05:37;;;;;;;18.05;2.95;;;;;;;;;;5112514;28;20028;-53
2022/05/08 08:08:03;;;;;;;17.83;2.70;;;;;;;;;;5112071;28;20127;-54
2022/05/08 08:10:29;;;;;;;24.35;3.85;;;;;;;;;;5111698;28;20020;-56
2022/05/08 08:12:59;;;;;;;23.02;3.97;;;;;;;;;;5112020;28;20024;-56
2022/05/08 08:15:26;;;;;;;24.95;3.50;;;;;;;;;;5111687;28;20023;-53
2022/05/08 08:17:52;;;;;;;20.45;4.03;;;;;;;;;;5102299;28;20127;-56
2022/05/08 08:20:18;;;;;;;18.75;3.60;;;;;;;;;;5109888;28;20098;-57
2022/05/08 08:22:44;;;;;;;31.70;3.75;;;;;;;;;;5108619;28;20055;-56
2022/05/08 08:25:10;;;;;;;21.63;3.45;;;;;;;;;;5099584;28;20050;-55
2022/05/08 08:27:36;;;;;;;18.63;3.38;;;;;;;;;;5091024;28;20383;-54
2022/05/08 08:30:03;;;;;;;21.38;2.60;;;;;;;;;;5108413;28;20072;-55
2022/05/08 08:32:31;;;;;;;19.50;4.28;;;;;;;;;;5098532;27;20058;-56
2022/05/08 08:34:57;;;;;;;25.27;4.22;;;;;;;;;;5105786;28;20038;-55
2022/05/08 08:37:24;;;;;;;28.85;4.05;;;;;;;;;;5110136;27;20138;-56
2022/05/08 08:39:50;;;;;;;17.75;3.42;;;;;;;;;;5110403;28;20028;-56
2022/05/08 08:42:16;;;;;;;20.20;3.58;;;;;;;;;;5110569;28;20074;-55
2022/05/08 08:47:43;;;;;;;15.40;3.00;;;;;;;;;;5108122;28;20034;-56
2022/05/08 08:50:09;;;;;;;24.98;3.95;;;;;;;;;;5109595;28;20024;-57
2022/05/08 08:52:36;;;;;;;14.48;2.75;;;;;;;;;;5109515;27;20050;-56
2022/05/08 08:55:04;;;;;;;21.63;3.05;;;;;;;;;;5109272;28;20023;-57
2022/05/08 08:57:30;;;;;;;21.58;3.22;;;;;;;;;;5109338;28;20023;-56
2022/05/08 08:59:56;;;;;;;20.88;3.05;;;;;;;;;;5095422;28;20127;-56
2022/05/08 09:02:22;;;;;;;16.30;3.03;;;;;;;;;;5109954;28;20050;-56
2022/05/08 09:04:54;;;;;;;16.77;2.85;;;;;;;;;;5107859;28;20024;-56
2022/05/08 09:07:36;;;;;;;12.43;3.03;;;;;;;;;;5106078;28;20081;-55
2022/05/08 09:10:08;;;;;;;13.27;3.00;;;;;;;;;;5109679;28;20035;-56
2022/05/08 09:12:35;;;;;;;15.68;3.10;;;;;;;;;;5108180;28;20024;-54
2022/05/08 09:15:16;;;;;;;15.75;3.88;;;;;;;;;;5111040;28;20106;-51
2022/05/08 09:17:44;;;;;;;12.27;2.80;;;;;;;;;;5109904;28;20070;-58
2022/05/08 09:20:32;;;;;;;14.23;2.97;;;;;;;;;;5107925;28;20031;-54
2022/05/08 09:23:09;;;;;;;14.43;4.82;;;;;;;;;;5104824;28;20019;-56
2022/05/08 09:25:45;;;;;;;14.48;3.50;;;;;;;;;;5104199;28;20028;-54
2022/05/08 09:28:15;;;;;;;11.15;3.15;;;;;;;;;;5105359;28;20031;-56
2022/05/08 09:30:56;;;;;;;15.40;3.63;;;;;;;;;;5106307;28;20101;-50
2022/05/08 09:33:23;;;;;;;12.65;3.00;;;;;;;;;;5107406;28;20051;-56
2022/05/08 09:35:49;;;;;;;13.15;3.15;;;;;;;;;;5108577;28;20035;-56
2022/05/08 09:38:15;;;;;;;16.05;2.67;;;;;;;;;;5108935;28;20073;-56
2022/05/08 09:40:41;;;;;;;14.10;3.35;;;;;;;;;;5105807;28;20490;-56
2022/05/08 09:43:26;;;;;;;17.45;3.85;;;;;;;;;;5107785;28;20036;-56
2022/05/08 09:45:59;;;;;;;12.95;3.33;;;;;;;;;;5089736;28;20035;-55
2022/05/08 09:48:34;;;;;;;12.13;3.05;;;;;;;;;;5109233;28;20509;-56
2022/05/08 09:51:03;;;;;;;12.43;2.83;;;;;;;;;;5110110;28;20048;-57
2022/05/08 09:53:31;;;;;;;10.02;2.78;;;;;;;;;;5109474;28;20101;-53
2022/05/08 09:55:57;;;;;;;9.48;2.70;;;;;;;;;;5107439;28;20016;-52
2022/05/08 09:58:24;;;;;;;14.30;3.35;;;;;;;;;;5107105;28;20800;-53
2022/05/08 10:00:51;;;;;;;11.93;2.95;;;;;;;;;;5088999;28;20032;-56
2022/05/08 10:03:17;;;;;;;14.82;3.42;;;;;;;;;;5103344;28;20409;-54
2022/05/08 10:05:43;;;;;;;10.95;3.10;;;;;;;;;;5101965;28;20025;-53
2022/05/08 10:08:11;;;;;;;11.45;2.97;;;;;;;;;;5102714;28;20055;-55
2022/05/08 10:13:53;;;;;;;17.33;2.95;;;;;;;;;;5101421;28;20104;-54
2022/05/08 10:16:38;;;;;;;10.93;2.78;;;;;;;;;;5101372;28;20054;-54
2022/05/08 10:19:22;;;;;;;11.00;3.00;;;;;;;;;;5102860;28;20031;-54
2022/05/08 10:21:57;;;;;;;19.88;3.35;;;;;;;;;;5102246;28;20505;-53
2022/05/08 10:24:33;;;;;;;13.13;2.85;;;;;;;;;;5101153;28;20032;-55
2022/05/08 10:27:30;;;;;;;12.23;3.30;;;;;;;;;;5101654;28;20042;-53
2022/05/08 10:29:56;;;;;;;12.65;2.85;;;;;;;;;;5096674;28;20036;-55
2022/05/08 10:32:48;;;;;;;8.45;3.13;;;;;;;;;;5100369;28;20964;-56
2022/05/08 10:35:16;;;;;;;21.95;3.90;;;;;;;;;;5098943;28;20388;-50
2022/05/08 10:37:42;;;;;;;12.50;3.40;;;;;;;;;;5102726;28;20035;-50
2022/05/08 10:40:25;;;;;;;12.05;3.53;;;;;;;;;;5104276;28;20051;-54
2022/05/08 10:42:58;;;;;;;15.07;3.10;;;;;;;;;;5101978;28;20481;-53
2022/05/08 10:45:29;;;;;;;14.60;3.63;;;;;;;;;;5104033;28;20031;-50
2022/05/08 10:47:56;;;;;;;14.57;2.60;;;;;;;;;;5100534;28;20036;-53
2022/05/08 10:50:22;;;;;;;9.95;2.80;;;;;;;;;;5101156;28;20077;-52
2022/05/08 10:52:48;;;;;;;11.45;3.03;;;;;;;;;;5101060;28;21183;-54
2022/05/08 10:55:17;;;;;;;17.75;3.65;;;;;;;;;;5100561;28;20537;-53
2022/05/08 10:57:45;;;;;;;13.02;3.05;;;;;;;;;;5104695;28;20030;-54
2022/05/08 11:00:12;;;;;;;12.52;3.42;;;;;;;;;;5101214;28;20848;-54
2022/05/08 11:02:38;;;;;;;18.35;3.28;;;;;;;;;;5101309;28;20030;-54
2022/05/08 11:05:05;;;;;;;20.20;3.15;;;;;;;;;;5102058;28;20729;-55
2022/05/08 11:07:32;;;;;;;13.95;2.60;;;;;;;;;;5100433;28;20024;-54
2022/05/08 11:09:58;;;;;;;12.70;2.53;;;;;;;;;;5101790;28;20106;-55
2022/05/08 11:12:24;;;;;;;13.23;3.58;;;;;;;;;;5102119;28;20580;-55
2022/05/08 11:14:51;;;;;;;13.88;3.38;;;;;;;;;;5103318;28;20127;-52
2022/05/08 11:17:19;;;;;;;14.43;3.17;;;;;;;;;;5100291;28;20024;-55
2022/05/08 11:19:57;;;;;;;12.77;2.75;;;;;;;;;;5103443;28;20046;-55
2022/05/08 11:22:23;;;;;;;9.73;2.22;;;;;;;;;;5102235;28;20397;-55
2022/05/08 11:24:49;;;;;;;15.93;3.55;;;;;;;;;;5098204;28;20481;-55
2022/05/08 11:27:15;;;;;;;12.90;2.67;;;;;;;;;;5101973;28;20055;-55
2022/05/08 11:29:48;;;;;;;13.60;3.03;;;;;;;;;;5098796;28;20580;-54
2022/05/08 11:38:03;;;;;;;12.75;3.40;;;;;;;;;;5098156;28;20117;-53
2022/05/08 11:40:30;;;;;;;8.18;2.70;;;;;;;;;;5098557;28;20040;-54
2022/05/08 11:42:56;;;;;;;15.68;2.97;;;;;;;;;;5097903;28;20020;-54
2022/05/08 11:45:24;;;;;;;11.52;2.75;;;;;;;;;;5099450;28;20188;-54
2022/05/08 11:47:51;;;;;;;13.45;3.17;;;;;;;;;;5101427;28;20026;-57
2022/05/08 11:50:18;;;;;;;8.75;2.47;;;;;;;;;;5099362;28;20020;-55
2022/05/08 11:52:44;;;;;;;10.07;2.70;;;;;;;;;;5101201;28;20446;-54
2022/05/08 11:55:10;;;;;;;10.98;2.42;;;;;;;;;;5100677;28;20114;-54
2022/05/08 11:57:45;;;;;;;11.80;2.33;;;;;;;;;;5099344;28;20157;-56
2022/05/08 12:00:13;;;;;;;8.68;2.40;;;;;;;;;;5101237;28;20026;-53
2022/05/08 12:02:40;;;;;;;8.73;2.60;;;;;;;;;;5098671;28;20030;-54
2022/05/08 12:05:06;;;;;;;8.40;2.58;;;;;;;;;;5101896;28;20020;-53
2022/05/08 12:07:39;;;;;;;10.38;2.65;;;;;;;;;;5102015;28;20032;-55
2022/05/08 12:10:05;;;;;;;7.47;2.20;;;;;;;;;;5102315;28;20090;-53
2022/05/08 12:12:33;;;;;;;8.63;2.75;;;;;;;;;;5100460;28;20111;-55
2022/05/08 12:15:02;;;;;;;10.27;2.63;;;;;;;;;;5100499;28;20110;-56
2022/05/08 12:17:29;;;;;;;10.27;2.20;;;;;;;;;;5100521;28;20812;-53
2022/05/08 12:19:57;;;;;;;11.60;2.60;;;;;;;;;;5101728;28;20107;-54
2022/05/08 12:22:24;;;;;;;8.85;2.17;;;;;;;;;;5100311;28;20031;-56
2022/05/08 12:24:51;;;;;;;8.93;2.20;;;;;;;;;;5103252;28;20035;-53
2022/05/08 12:27:17;;;;;;;7.68;2.20;;;;;;;;;;5104191;28;20020;-55
2022/05/08 12:29:44;;;;;;;8.82;2.20;;;;;;;;;;5106238;28;20043;-55
2022/05/08 12:32:10;;;;;;;11.73;2.70;;;;;;;;;;5101627;28;20044;-54
2022/05/08 12:34:37;;;;;;;11.13;2.40;;;;;;;;;;5102984;28;20103;-54
2022/05/08 12:37:03;;;;;;;9.07;2.38;;;;;;;;;;5102336;28;20119;-53
2022/05/08 12:39:30;;;;;;;12.05;2.38;;;;;;;;;;5102763;28;20047;-55
2022/05/08 12:41:57;;;;;;;7.45;1.85;;;;;;;;;;5103703;28;20040;-54
2022/05/08 12:44:23;;;;;;;8.10;2.20;;;;;;;;;;5105662;28;20118;-56
2022/05/08 12:46:49;;;;;;;10.32;2.47;;;;;;;;;;5103651;28;20619;-56
2022/05/08 12:49:16;;;;;;;9.57;2.03;;;;;;;;;;5104426;28;20039;-54
2022/05/08 12:51:45;;;;;;;7.45;2.45;;;;;;;;;;5104250;28;20027;-56
2022/05/08 12:54:11;;;;;;;7.90;1.88;;;;;;;;;;5103325;28;20032;-54
2022/05/08 12:56:37;;;;;;;10.82;2.22;;;;;;;;;;5104414;28;20043;-52
2022/05/08 13:01:49;;;;;;;8.80;2.08;;;;;;;;;;5105058;28;20042;-55
2022/05/08 13:04:15;;;;;;;10.68;2.00;;;;;;;;;;5105180;28;20111;-54
2022/05/08 13:06:41;;;;;;;8.45;2.20;;;;;;;;;;5103200;28;20053;-55
2022/05/08 13:09:08;;;;;;;7.78;2.53;;;;;;;;;;5102952;28;20043;-53
2022/05/08 13:11:37;;;;;;;9.77;2.40;;;;;;;;;;5101269;28;20146;-55
2022/05/08 13:14:04;;;;;;;7.65;2.33;;;;;;;;;;5104613;28;20035;-55
2022/05/08 13:16:30;;;;;;;9.82;2.28;;;;;;;;;;5103817;28;20044;-53
2022/05/08 13:18:56;;;;;;;6.78;2.03;;;;;;;;;;5103987;28;20011;-53
2022/05/08 13:21:22;;;;;;;7.28;2.17;;;;;;;;;;5104305;28;20720;-55
2022/05/08 13:23:49;;;;;;;10.27;2.33;;;;;;;;;;5103504;27;20036;-54
2022/05/08 13:26:17;;;;;;;10.98;2.42;;;;;;;;;;5100688;28;20024;-54
2022/05/08 13:28:43;;;;;;;10.20;2.65;;;;;;;;;;5099063;28;20035;-54
2022/05/08 13:31:10;;;;;;;10.32;2.13;;;;;;;;;;5101386;28;20042;-48
2022/05/08 13:33:36;;;;;;;9.27;2.55;;;;;;;;;;5101642;28;20390;-56
2022/05/08 13:36:02;;;;;;;7.45;2.03;;;;;;;;;;5101939;28;20030;-52
2022/05/08 13:38:28;;;;;;;9.45;2.03;;;;;;;;;;5101467;28;20524;-57
2022/05/08 13:40:57;;;;;;;12.25;2.47;;;;;;;;;;5103110;28;20031;-53
2022/05/08 13:43:24;;;;;;;7.05;1.90;;;;;;;;;;5102845;28;20045;-52
2022/05/08 13:45:50;;;;;;;8.50;1.92;;;;;;;;;;5100368;28;20020;-55
2022/05/08 13:48:17;;;;;;;7.05;2.20;;;;;;;;;;5102050;28;20164;-52
2022/05/08 13:50:44;;;;;;;10.68;2.78;;;;;;;;;;5102394;28;20058;-55
2022/05/08 13:53:11;;;;;;;9.00;2.33;;;;;;;;;;5101326;28;20032;-56
2022/05/08 13:55:39;;;;;;;8.27;2.00;;;;;;;;;;5103499;28;20024;-55
2022/05/08 13:58:06;;;;;;;10.07;2.15;;;;;;;;;;5104027;28;20110;-52
2022/05/08 14:00:33;;;;;;;8.48;2.10;;;;;;;;;;5101097;28;21015;-52
2022/05/08 14:02:59;;;;;;;8.98;2.45;;;;;;;;;;5102868;28;20626;-55
2022/05/08 14:05:25;;;;;;;9.82;2.35;;;;;;;;;;5103966;28;20072;-55
2022/05/08 14:07:51;;;;;;;5.65;2.05;;;;;;;;;;5104687;28;20028;-54
2022/05/08 14:10:17;;;;;;;8.20;2.33;;;;;;;;;;5104502;28;20036;-54
2022/05/08 14:12:43;;;;;;;9.32;2.70;;;;;;;;;;5105239;28;20039;-56
2022/05/08 14:15:09;;;;;;;9.48;2.00;;;;;;;;;;5101247;28;20091;-55
2022/05/08 14:17:36;;;;;;;13.65;2.65;;;;;;;;;;5100973;28;20151;-51
2022/05/08 14:20:03;;;;;;;9.77;2.05;;;;;;;;;;5099658;27;20106;-50
2022/05/08 14:22:29;;;;;;;8.98;2.38;;;;;;;;;;5102642;28;20059;-53
2022/05/08 14:24:55;;;;;;;12.00;2.22;;;;;;;;;;5102417;28;20110;-55
2022/05/08 14:27:22;;;;;;;8.18;2.03;;;;;;;;;;5101350;28;20016;-54
2022/05/08 14:29:48;;;;;;;6.93;1.58;;;;;;;;;;5102116;28;20118;-53
2022/05/08 14:37:43;;;;;;;6.13;1.98;;;;;;;;;;5108094;28;20031;-55
2022/05/08 14:40:09;;;;;;;11.55;1.80;;;;;;;;;;5105904;28;20575;-55
2022/05/08 14:42:36;;;;;;;10.55;1.98;;;;;;;;;;5107372;28;20035;-54
2022/05/08 14:45:02;;;;;;;12.35;1.85;;;;;;;;;;5106044;28;20477;-54
2022/05/08 14:47:29;;;;;;;8.60;1.70;;;;;;;;;;5108044;28;20031;-54
2022/05/08 14:49:55;;;;;;;5.13;1.42;;;;;;;;;;5108427;28;20036;-54
2022/05/08 14:52:21;;;;;;;5.80;2.45;;;;;;;;;;5102657;28;20111;-54
2022/05/08 14:54:47;;;;;;;7.80;1.60;;;;;;;;;;5103110;28;20538;-58
2022/05/08 14:57:15;;;;;;;8.00;2.33;;;;;;;;;;5096779;28;20106;-53
2022/05/08 14:59:41;;;;;;;9.38;1.67;;;;;;;;;;5107593;28;20072;-53
2022/05/08 15:02:08;;;;;;;7.72;1.88;;;;;;;;;;5108554;28;20127;-53
2022/05/08 15:04:34;;;;;;;8.75;1.60;;;;;;;;;;5096586;28;20043;-53
2022/05/08 15:07:03;;;;;;;7.13;2.58;;;;;;;;;;5091185;28;20103;-54
2022/05/08 15:09:29;;;;;;;9.88;2.00;;;;;;;;;;5100797;28;20580;-59
2022/05/08 15:11:55;;;;;;;9.60;2.33;;;;;;;;;;5097793;28;20112;-57